Airfield :
LOGIN :

Register | Disclaimer

   EN    FR    IT 

 










Legend :    VFR   Marginal VFR   IFR   Intensive IFR   Very Intensive IFR
Visi :
Ceiling :
>= 8 km
>= 3000ft
5 to 8 km
1000 to 3000 ft
1500m to 5 km
500 to 1000 ft
800 to 1500m
200 to 500 ft
< 800m
< 200 ft
Symbols :   Thunderstorms  Fog  Heavy snow  Heavy precipitations  Wind > 20 kt
SIGMETs :     Misc.  Thunderstorms  Icing  Turbulence  Mountain Waves  Volcanic Ashes






- Airport Elevation : 3245 ft
- IATA code : TID


DAOB - Bou Chekif - Tiaret

CURRENT METAR :
  • 100200Z 30006KT 9000 -RA BKN023 11/11 Q1020

EXPIRED METARs :
  • 100100Z 29007KT 9000 -RA BKN023 11/11 Q1020
  • 100000Z 29007KT 9999 BKN023 12/11 Q1020
  • 092300Z 25009KT 9999 SCT026 13/13 Q1020

TAF TAF DAOB
Valid from the 10 at 00:00 until the 11 at 00:00 UTC


092300Z 1000/1024 28008KT 9999 FEW026
PROB40
TEMPO 1002/1014 FEW026TCU FEW030CB
PROB30
TEMPO 1002/1012 28015G25KT 4000 -TSRA FEW030CB



MET'MAP, your aeronautical weather chart ! - Copyright ORBIFLY December 2007 - Disclaimer

ORBIFLY MET'MAP TEAM :

Programming & Development : Alexandra Zaïnal
Concept & original design : Baudouin d'Aumeries
Assistance for programming : Marc-Olivier Méhu
Technical & hardware support : Manuel Goepfert

Contact : metmap@orbifly.com




SOURCES & CREDITS :

   NOAA